createdAt,value
2018-11-11T00:00:48.162Z,8.03
2018-11-11T00:01:48.123Z,7.99
2018-11-11T00:02:48.119Z,8.04
2018-11-11T00:03:48.118Z,8.04
2018-11-11T00:04:48.115Z,8.03
2018-11-11T00:05:48.140Z,8.08
2018-11-11T00:06:48.112Z,8.12
2018-11-11T00:07:48.106Z,8.08
2018-11-11T00:08:48.099Z,8.07
2018-11-11T00:09:48.096Z,8.07
2018-11-11T00:10:48.119Z,8.00
2018-11-11T00:11:48.087Z,8.00
2018-11-11T00:12:48.083Z,7.99
2018-11-11T00:13:48.079Z,7.93
2018-11-11T00:14:48.079Z,7.84
2018-11-11T00:15:48.102Z,7.82
2018-11-11T00:16:48.071Z,7.79
2018-11-11T00:17:48.070Z,7.77
2018-11-11T00:18:48.065Z,7.75
2018-11-11T00:19:48.063Z,7.74
2018-11-11T00:20:48.083Z,7.69
2018-11-11T00:21:48.114Z,7.62
2018-11-11T00:22:48.051Z,7.59
2018-11-11T00:23:48.043Z,7.62
2018-11-11T00:24:48.040Z,7.55
2018-11-11T00:25:48.063Z,7.59
2018-11-11T00:26:48.031Z,7.53
2018-11-11T00:27:48.033Z,7.52
2018-11-11T00:28:48.083Z,7.49
2018-11-11T00:29:48.025Z,7.49
2018-11-11T00:30:48.050Z,7.47
2018-11-11T00:31:48.015Z,7.45
2018-11-11T00:32:48.025Z,7.56
2018-11-11T00:33:48.009Z,7.56
2018-11-11T00:34:48.029Z,7.69
2018-11-11T00:35:48.000Z,7.77
2018-11-11T00:36:48.005Z,7.71
2018-11-11T00:37:47.993Z,7.74
2018-11-11T00:38:47.988Z,7.63
2018-11-11T00:39:48.010Z,7.60
2018-11-11T00:40:47.982Z,7.69
2018-11-11T00:41:47.972Z,7.69
2018-11-11T00:42:47.974Z,7.69
2018-11-11T00:43:47.969Z,7.78
2018-11-11T00:44:47.994Z,7.82
2018-11-11T00:45:47.965Z,7.79
2018-11-11T00:46:47.961Z,7.84
2018-11-11T00:47:47.958Z,7.81
2018-11-11T00:48:47.952Z,7.82
2018-11-11T00:49:47.975Z,7.84
2018-11-11T00:50:47.948Z,7.84
2018-11-11T00:51:47.940Z,7.79
2018-11-11T00:52:47.940Z,7.87
2018-11-11T00:53:47.944Z,7.97
2018-11-11T00:54:47.954Z,7.92
2018-11-11T00:55:47.931Z,7.96
2018-11-11T00:56:47.921Z,7.99
2018-11-11T00:57:47.914Z,7.96
2018-11-11T00:58:47.918Z,8.07
2018-11-11T00:59:47.936Z,8.03
2018-11-11T01:00:47.910Z,8.17
2018-11-11T01:01:47.908Z,8.11
2018-11-11T01:02:47.905Z,8.10
2018-11-11T01:03:47.898Z,8.03
2018-11-11T01:04:47.914Z,8.10
2018-11-11T01:05:47.898Z,8.00
2018-11-11T01:06:47.876Z,8.04
2018-11-11T01:07:47.881Z,8.00
2018-11-11T01:08:47.878Z,8.07
2018-11-11T01:09:47.906Z,7.97
2018-11-11T01:10:47.874Z,7.99
2018-11-11T01:11:47.865Z,7.92
2018-11-11T01:12:47.865Z,7.92
2018-11-11T01:13:47.862Z,7.89
2018-11-11T01:14:47.889Z,8.00
2018-11-11T01:15:47.854Z,8.14
2018-11-11T01:16:47.849Z,8.11
2018-11-11T01:17:47.845Z,8.17
2018-11-11T01:18:47.842Z,8.12
2018-11-11T01:19:47.865Z,8.17
2018-11-11T01:20:47.836Z,8.14
2018-11-11T01:21:47.832Z,8.08
2018-11-11T01:22:47.827Z,8.20
2018-11-11T01:23:47.830Z,8.20
2018-11-11T01:24:47.846Z,8.30
2018-11-11T01:25:47.815Z,8.32
2018-11-11T01:26:47.817Z,8.26
2018-11-11T01:27:47.807Z,8.39
2018-11-11T01:28:47.824Z,8.36
2018-11-11T01:29:47.831Z,8.29
2018-11-11T01:30:47.799Z,8.37
2018-11-11T01:31:47.794Z,8.32
2018-11-11T01:32:47.786Z,8.35
2018-11-11T01:33:47.792Z,8.35
2018-11-11T01:34:47.815Z,8.40
2018-11-11T01:35:47.780Z,8.40
2018-11-11T01:36:47.780Z,8.51
2018-11-11T01:37:47.774Z,8.48
2018-11-11T01:38:47.772Z,8.53
2018-11-11T01:39:47.820Z,8.54
2018-11-11T01:40:47.764Z,8.53
2018-11-11T01:41:47.759Z,8.58
2018-11-11T01:42:47.750Z,8.58
2018-11-11T01:43:47.753Z,8.55
2018-11-11T01:44:47.779Z,8.44
2018-11-11T01:45:47.748Z,8.45
2018-11-11T01:46:47.747Z,8.42
2018-11-11T01:47:47.739Z,8.37
2018-11-11T01:48:47.735Z,8.29
2018-11-11T01:49:47.760Z,8.29
2018-11-11T01:50:47.725Z,8.28
2018-11-11T01:51:47.728Z,8.36
2018-11-11T01:52:47.720Z,8.35
2018-11-11T01:53:47.745Z,8.28
2018-11-11T01:54:47.716Z,8.39
2018-11-11T01:55:47.712Z,8.37
2018-11-11T01:56:47.708Z,8.33
2018-11-11T01:57:47.744Z,8.39
2018-11-11T01:58:47.725Z,8.39
2018-11-11T01:59:47.697Z,8.42
2018-11-11T02:00:47.693Z,8.54
2018-11-11T02:01:47.694Z,8.54
2018-11-11T02:02:47.697Z,8.54
2018-11-11T02:03:47.712Z,8.40
2018-11-11T02:04:47.676Z,8.39
2018-11-11T02:05:47.677Z,8.28
2018-11-11T02:06:47.672Z,8.30
2018-11-11T02:07:47.672Z,8.30
2018-11-11T02:08:47.688Z,8.32
2018-11-11T02:09:47.704Z,8.45
2018-11-11T02:10:47.658Z,8.33
2018-11-11T02:11:47.653Z,8.29
2018-11-11T02:12:47.650Z,8.26
2018-11-11T02:13:47.677Z,8.25
2018-11-11T02:14:47.641Z,8.22
2018-11-11T02:15:47.637Z,8.21
2018-11-11T02:16:47.637Z,8.22
2018-11-11T02:17:47.633Z,8.17
2018-11-11T02:18:47.657Z,8.17
2018-11-11T02:19:47.630Z,8.17
2018-11-11T02:20:47.621Z,8.15
2018-11-11T02:21:47.722Z,8.11
2018-11-11T02:22:47.613Z,8.18
2018-11-11T02:23:47.637Z,8.15
2018-11-11T02:24:47.605Z,8.15
2018-11-11T02:25:47.602Z,8.04
2018-11-11T02:26:47.600Z,8.12
2018-11-11T02:27:47.655Z,8.04
2018-11-11T02:28:47.614Z,8.08
2018-11-11T02:29:47.591Z,8.14
2018-11-11T02:30:47.587Z,8.18
2018-11-11T02:31:47.582Z,8.10
2018-11-11T02:32:47.587Z,8.17
2018-11-11T02:33:47.602Z,8.08
2018-11-11T02:34:47.570Z,8.10
2018-11-11T02:35:47.569Z,8.11
2018-11-11T02:36:47.567Z,8.17
2018-11-11T02:37:47.562Z,8.17
2018-11-11T02:38:47.587Z,8.17
2018-11-11T02:39:47.551Z,8.04
2018-11-11T02:40:47.548Z,8.08
2018-11-11T02:41:47.544Z,8.17
2018-11-11T02:42:47.556Z,8.11
2018-11-11T02:43:47.563Z,8.14
2018-11-11T02:44:47.563Z,8.08
2018-11-11T02:45:47.530Z,8.04
2018-11-11T02:46:47.531Z,8.15
2018-11-11T02:47:47.524Z,8.18
2018-11-11T02:48:47.519Z,8.08
2018-11-11T02:49:47.546Z,8.10
2018-11-11T02:50:47.514Z,8.04
2018-11-11T02:51:47.504Z,8.12
2018-11-11T02:52:47.502Z,8.00
2018-11-11T02:53:47.533Z,7.99
2018-11-11T02:54:47.499Z,8.02
2018-11-11T02:55:47.530Z,8.03
2018-11-11T02:56:47.492Z,8.08
2018-11-11T02:57:47.488Z,8.08
2018-11-11T02:58:47.483Z,7.92
2018-11-11T02:59:47.510Z,7.99
2018-11-11T03:00:47.476Z,8.02
2018-11-11T03:01:47.472Z,8.02
2018-11-11T03:02:47.470Z,8.02
2018-11-11T03:03:47.464Z,7.90
2018-11-11T03:04:47.590Z,7.96
2018-11-11T03:05:47.455Z,7.94
2018-11-11T03:06:47.448Z,7.92
2018-11-11T03:07:47.451Z,7.92
2018-11-11T03:08:47.492Z,7.82
2018-11-11T03:09:47.439Z,7.84
2018-11-11T03:10:47.469Z,7.89
2018-11-11T03:11:47.429Z,7.89
2018-11-11T03:12:47.431Z,7.85
2018-11-11T03:13:47.424Z,7.87
2018-11-11T03:14:47.421Z,7.84
2018-11-11T03:15:47.440Z,7.85
2018-11-11T03:16:47.411Z,7.90
2018-11-11T03:17:47.409Z,7.84
2018-11-11T03:18:47.400Z,7.87
2018-11-11T03:19:47.400Z,7.93
2018-11-11T03:20:47.430Z,7.87
2018-11-11T03:21:47.391Z,7.92
2018-11-11T03:22:47.387Z,7.97
2018-11-11T03:23:47.383Z,7.85
2018-11-11T03:24:47.381Z,7.94
2018-11-11T03:25:47.409Z,7.97
2018-11-11T03:26:47.372Z,7.93
2018-11-11T03:27:47.367Z,8.10
2018-11-11T03:28:47.371Z,7.96
2018-11-11T03:29:47.362Z,8.00
2018-11-11T03:30:47.388Z,8.00
2018-11-11T03:31:47.353Z,7.96
2018-11-11T03:32:47.361Z,7.93
2018-11-11T03:33:47.341Z,7.97
2018-11-11T03:34:47.343Z,7.99
2018-11-11T03:35:47.368Z,7.94
2018-11-11T03:36:47.342Z,7.97
2018-11-11T03:37:47.330Z,8.02
2018-11-11T03:38:47.327Z,7.94
2018-11-11T03:39:47.322Z,8.07
2018-11-11T03:40:47.349Z,7.96
2018-11-11T03:41:47.313Z,7.99
2018-11-11T03:42:47.320Z,7.97
2018-11-11T03:43:47.301Z,8.00
2018-11-11T03:44:47.300Z,7.92
2018-11-11T03:45:47.330Z,7.94
2018-11-11T03:46:47.292Z,7.99
2018-11-11T03:47:47.291Z,8.07
2018-11-11T03:48:47.282Z,7.94
2018-11-11T03:49:47.287Z,7.90
2018-11-11T03:50:47.305Z,7.90
2018-11-11T03:51:47.273Z,7.97
2018-11-11T03:52:47.268Z,7.94
2018-11-11T03:53:47.265Z,7.99
2018-11-11T03:54:47.261Z,7.90
2018-11-11T03:55:47.285Z,7.87
2018-11-11T03:56:47.253Z,7.79
2018-11-11T03:57:47.250Z,7.90
2018-11-11T03:58:47.280Z,7.84
2018-11-11T03:59:47.242Z,7.84
2018-11-11T04:00:47.264Z,7.89
2018-11-11T04:01:47.235Z,7.89
2018-11-11T04:02:47.225Z,7.81
2018-11-11T04:03:47.221Z,7.87
2018-11-11T04:04:47.222Z,7.93
2018-11-11T04:05:47.245Z,7.93
2018-11-11T04:06:47.215Z,7.94
2018-11-11T04:07:47.211Z,8.00
2018-11-11T04:08:47.207Z,7.99
2018-11-11T04:09:47.201Z,7.97
2018-11-11T04:10:47.229Z,7.96
2018-11-11T04:11:47.197Z,8.02
2018-11-11T04:12:47.198Z,8.02
2018-11-11T04:13:47.185Z,7.96
2018-11-11T04:14:47.183Z,8.07
2018-11-11T04:15:47.211Z,8.04
2018-11-11T04:16:47.176Z,8.07
2018-11-11T04:17:47.172Z,8.10
2018-11-11T04:18:47.166Z,8.11
2018-11-11T04:19:47.198Z,8.08
2018-11-11T04:20:47.186Z,8.07
2018-11-11T04:21:47.158Z,8.07
2018-11-11T04:22:47.154Z,8.02
2018-11-11T04:23:47.146Z,8.08
2018-11-11T04:24:48.820Z,8.02
2018-11-11T04:25:47.162Z,8.04
2018-11-11T04:26:47.139Z,8.03
2018-11-11T04:27:47.130Z,8.03
2018-11-11T04:28:47.127Z,8.11
2018-11-11T04:29:47.126Z,8.08
2018-11-11T04:30:47.151Z,8.20
2018-11-11T04:31:47.121Z,8.18
2018-11-11T04:32:47.120Z,8.12
2018-11-11T04:33:47.110Z,8.10
2018-11-11T04:34:47.103Z,8.03
2018-11-11T04:35:47.132Z,8.02
2018-11-11T04:36:47.100Z,8.04
2018-11-11T04:37:47.091Z,8.07
2018-11-11T04:38:47.089Z,8.07
2018-11-11T04:39:47.115Z,8.00
2018-11-11T04:40:47.079Z,8.04
2018-11-11T04:41:47.083Z,8.11
2018-11-11T04:42:47.075Z,8.04
2018-11-11T04:43:47.071Z,8.03
2018-11-11T04:44:47.095Z,8.08
2018-11-11T04:45:47.060Z,8.07
2018-11-11T04:46:47.058Z,8.11
2018-11-11T04:47:47.053Z,8.14
2018-11-11T04:48:47.052Z,8.15
2018-11-11T04:49:47.073Z,8.03
2018-11-11T04:50:47.043Z,8.08
2018-11-11T04:51:47.037Z,8.12
2018-11-11T04:52:47.037Z,8.03
2018-11-11T04:53:47.032Z,8.07
2018-11-11T04:54:47.059Z,8.07
2018-11-11T04:55:47.023Z,8.10
2018-11-11T04:56:47.019Z,8.03
2018-11-11T04:57:47.012Z,8.11
2018-11-11T04:58:47.013Z,8.04
2018-11-11T04:59:47.045Z,8.15
2018-11-11T05:00:47.004Z,8.08
2018-11-11T05:01:47.001Z,8.07
2018-11-11T05:02:46.993Z,8.10
2018-11-11T05:03:46.995Z,8.17
2018-11-11T05:04:47.119Z,8.17
2018-11-11T05:05:46.986Z,8.15
2018-11-11T05:06:46.985Z,8.04
2018-11-11T05:07:46.972Z,8.17
2018-11-11T05:08:46.975Z,8.15
2018-11-11T05:09:46.996Z,8.15
2018-11-11T05:10:46.964Z,8.20
2018-11-11T05:11:46.960Z,8.15
2018-11-11T05:12:46.952Z,8.21
2018-11-11T05:13:46.950Z,8.17
2018-11-11T05:14:46.976Z,8.25
2018-11-11T05:15:46.945Z,8.35
2018-11-11T05:16:46.941Z,8.26
2018-11-11T05:17:46.934Z,8.28
2018-11-11T05:18:46.932Z,8.28
2018-11-11T05:19:46.956Z,8.18
2018-11-11T05:20:46.925Z,8.28
2018-11-11T05:21:46.989Z,8.25
2018-11-11T05:22:46.913Z,8.26
2018-11-11T05:23:46.920Z,8.18
2018-11-11T05:24:46.937Z,8.26
2018-11-11T05:25:46.932Z,8.29
2018-11-11T05:26:46.900Z,8.28
2018-11-11T05:27:46.899Z,8.29
2018-11-11T05:28:46.892Z,8.20
2018-11-11T05:29:46.892Z,8.28
2018-11-11T05:30:46.915Z,8.32
2018-11-11T05:31:46.880Z,8.29
2018-11-11T05:32:46.876Z,8.32
2018-11-11T05:33:46.873Z,8.28
2018-11-11T05:34:46.868Z,8.28
2018-11-11T05:35:46.893Z,8.29
2018-11-11T05:36:46.861Z,8.30
2018-11-11T05:37:46.857Z,8.28
2018-11-11T05:38:46.852Z,8.17
2018-11-11T05:39:46.851Z,8.30
2018-11-11T05:40:46.878Z,8.22
2018-11-11T05:41:46.841Z,8.26
2018-11-11T05:42:46.837Z,8.29
2018-11-11T05:43:46.834Z,8.25
2018-11-11T05:44:46.828Z,8.17
2018-11-11T05:45:46.857Z,8.28
2018-11-11T05:46:46.821Z,8.26
2018-11-11T05:47:46.817Z,8.22
2018-11-11T05:48:46.812Z,8.21
2018-11-11T05:49:46.808Z,8.25
2018-11-11T05:50:46.838Z,8.21
2018-11-11T05:51:46.807Z,8.21
2018-11-11T05:52:46.810Z,8.21
2018-11-11T05:53:46.796Z,8.17
2018-11-11T05:54:46.789Z,8.15
2018-11-11T05:55:46.817Z,8.28
2018-11-11T05:56:46.788Z,8.17
2018-11-11T05:57:46.782Z,8.14
2018-11-11T05:58:46.777Z,8.20
2018-11-11T05:59:46.774Z,8.22
2018-11-11T06:00:46.797Z,8.21
2018-11-11T06:01:46.764Z,8.17
2018-11-11T06:02:46.760Z,8.20
2018-11-11T06:03:46.758Z,8.30
2018-11-11T06:04:46.752Z,8.29
2018-11-11T06:05:46.751Z,8.30
2018-11-11T06:06:46.779Z,8.35
2018-11-11T06:07:46.743Z,8.37
2018-11-11T06:08:46.738Z,8.29
2018-11-11T06:09:46.738Z,8.37
2018-11-11T06:10:46.761Z,8.30
2018-11-11T06:11:46.727Z,8.32
2018-11-11T06:12:46.721Z,8.35
2018-11-11T06:13:46.718Z,8.30
2018-11-11T06:14:46.718Z,8.28
2018-11-11T06:15:46.744Z,8.25
2018-11-11T06:16:46.738Z,8.28
2018-11-11T06:17:46.705Z,8.29
2018-11-11T06:18:46.708Z,8.26
2018-11-11T06:19:46.698Z,8.33
2018-11-11T06:20:46.697Z,8.29
2018-11-11T06:21:46.722Z,8.28
2018-11-11T06:22:46.686Z,8.37
2018-11-11T06:23:46.681Z,8.29
2018-11-11T06:24:46.673Z,8.32
2018-11-11T06:25:46.676Z,8.33
2018-11-11T06:26:46.702Z,8.29
2018-11-11T06:27:46.667Z,8.36
2018-11-11T06:28:46.662Z,8.32
2018-11-11T06:29:46.658Z,8.29
2018-11-11T06:30:46.658Z,8.37
2018-11-11T06:31:46.684Z,8.44
2018-11-11T06:32:46.726Z,8.30
2018-11-11T06:33:47.547Z,8.36
2018-11-11T06:34:47.317Z,8.32
2018-11-11T06:35:47.564Z,8.28
2018-11-11T06:36:46.673Z,8.25
2018-11-11T06:37:48.464Z,8.21
2018-11-11T06:38:46.897Z,8.28
2018-11-11T06:39:46.623Z,8.29
2018-11-11T06:40:46.622Z,8.30
2018-11-11T06:41:46.643Z,8.29
2018-11-11T06:42:47.991Z,8.37
2018-11-11T06:43:49.044Z,8.28
2018-11-11T06:44:46.791Z,8.29
2018-11-11T06:45:48.233Z,8.18
2018-11-11T06:46:46.731Z,8.29
2018-11-11T06:47:49.194Z,8.28
2018-11-11T06:48:46.587Z,8.25
2018-11-11T06:49:46.583Z,8.30
2018-11-11T06:50:46.699Z,8.25
2018-11-11T06:51:46.603Z,8.32
2018-11-11T06:52:46.572Z,8.33
2018-11-11T06:53:46.566Z,8.35
2018-11-11T06:54:46.751Z,8.36
2018-11-11T06:55:46.566Z,8.36
2018-11-11T06:56:46.583Z,8.48
2018-11-11T06:57:47.554Z,8.48
2018-11-11T06:58:46.548Z,8.48
2018-11-11T06:59:46.542Z,8.45
2018-11-11T07:00:46.613Z,8.54
2018-11-11T07:01:46.563Z,8.53
2018-11-11T07:02:46.533Z,8.47
2018-11-11T07:03:46.527Z,8.47
2018-11-11T07:04:46.531Z,8.55
2018-11-11T07:05:46.551Z,8.51
2018-11-11T07:06:46.549Z,8.53
2018-11-11T07:07:47.545Z,8.53
2018-11-11T07:08:48.055Z,8.53
2018-11-11T07:09:50.544Z,8.54
2018-11-11T07:10:46.505Z,8.48
2018-11-11T07:11:46.532Z,8.51
2018-11-11T07:12:46.496Z,8.53
2018-11-11T07:13:50.115Z,8.51
2018-11-11T07:14:53.181Z,8.44
2018-11-11T07:15:47.598Z,8.54
2018-11-11T07:16:47.723Z,8.54
2018-11-11T07:17:47.634Z,8.48
2018-11-11T07:18:47.059Z,8.42
2018-11-11T07:19:49.063Z,8.44
2018-11-11T07:20:48.082Z,8.44
2018-11-11T07:21:48.273Z,8.45
2018-11-11T07:22:46.466Z,8.69
2018-11-11T07:23:46.533Z,8.91
2018-11-11T07:24:46.467Z,9.43
2018-11-11T07:25:46.458Z,9.78
2018-11-11T07:26:46.490Z,10.12
2018-11-11T07:27:46.456Z,10.63
2018-11-11T07:28:46.451Z,10.94
2018-11-11T07:29:46.441Z,11.24
2018-11-11T07:30:46.439Z,11.49
2018-11-11T07:31:46.472Z,11.49
2018-11-11T07:32:46.439Z,11.59
2018-11-11T07:33:46.435Z,11.83
2018-11-11T07:34:46.440Z,11.96
2018-11-11T07:35:46.450Z,12.05
2018-11-11T07:36:46.472Z,12.24
2018-11-11T07:37:46.432Z,12.38
2018-11-11T07:38:46.434Z,12.69
2018-11-11T07:39:46.437Z,12.79
2018-11-11T07:40:46.433Z,13.04
2018-11-11T07:41:46.465Z,13.06
2018-11-11T07:42:46.426Z,13.29
2018-11-11T07:43:46.428Z,13.51
2018-11-11T07:44:46.430Z,12.67
2018-11-11T07:45:46.438Z,12.13
2018-11-11T07:46:46.459Z,12.27
2018-11-11T07:47:46.470Z,12.57
2018-11-11T07:48:46.445Z,12.62
2018-11-11T07:49:46.436Z,12.95
2018-11-11T07:50:46.439Z,13.37
2018-11-11T07:51:46.499Z,13.69
2018-11-11T07:52:46.438Z,13.61
2018-11-11T07:53:46.438Z,12.24
2018-11-11T07:54:46.478Z,12.13
2018-11-11T07:55:46.461Z,11.57
2018-11-11T07:56:46.471Z,11.38
2018-11-11T07:57:46.453Z,11.43
2018-11-11T07:58:46.451Z,11.83
2018-11-11T07:59:46.454Z,11.71
2018-11-11T08:00:46.450Z,11.28
2018-11-11T08:01:46.577Z,11.09
2018-11-11T08:02:46.462Z,10.76
2018-11-11T08:03:46.463Z,10.34
2018-11-11T08:04:46.486Z,9.86
2018-11-11T08:05:46.465Z,9.73
2018-11-11T08:06:46.498Z,9.49
2018-11-11T08:07:46.470Z,9.67
2018-11-11T08:08:46.470Z,9.61
2018-11-11T08:09:46.476Z,9.68
2018-11-11T08:10:46.475Z,9.64
2018-11-11T08:11:46.502Z,9.71
2018-11-11T08:12:46.476Z,9.66
2018-11-11T08:13:46.482Z,9.79
2018-11-11T08:14:46.484Z,9.99
2018-11-11T08:15:46.474Z,10.07
2018-11-11T08:16:46.592Z,10.19
2018-11-11T08:17:46.475Z,10.26
2018-11-11T08:18:46.476Z,10.36
2018-11-11T08:19:46.475Z,10.55
2018-11-11T08:20:46.472Z,10.53
2018-11-11T08:21:46.503Z,10.88
2018-11-11T08:22:46.474Z,11.28
2018-11-11T08:23:46.471Z,11.09
2018-11-11T08:24:46.471Z,10.95
2018-11-11T08:25:46.473Z,10.84
2018-11-11T08:26:46.503Z,10.65
2018-11-11T08:27:46.479Z,10.51
2018-11-11T08:28:46.471Z,10.56
2018-11-11T08:29:46.468Z,10.59
2018-11-11T08:30:46.467Z,10.39
2018-11-11T08:31:46.492Z,10.21
2018-11-11T08:32:46.469Z,10.25
2018-11-11T08:33:46.470Z,10.30
2018-11-11T08:34:46.463Z,10.34
2018-11-11T08:35:46.466Z,10.28
2018-11-11T08:36:46.491Z,10.39
2018-11-11T08:37:46.460Z,10.32
2018-11-11T08:38:46.458Z,10.37
2018-11-11T08:39:46.454Z,10.44
2018-11-11T08:40:46.483Z,10.68
2018-11-11T08:41:46.455Z,10.98
2018-11-11T08:42:46.453Z,10.77
2018-11-11T08:43:46.452Z,11.19
2018-11-11T08:44:46.564Z,11.49
2018-11-11T08:45:46.478Z,11.19
2018-11-11T08:46:46.456Z,11.02
2018-11-11T08:47:46.443Z,10.96
2018-11-11T08:48:46.447Z,10.88
2018-11-11T08:49:46.472Z,10.62
2018-11-11T08:50:46.443Z,10.40
2018-11-11T08:51:46.472Z,10.40
2018-11-11T08:52:46.440Z,10.30
2018-11-11T08:53:46.441Z,10.21
2018-11-11T08:54:46.439Z,10.12
2018-11-11T08:55:46.439Z,10.01
2018-11-11T08:56:46.464Z,10.00
2018-11-11T08:57:46.453Z,10.09
2018-11-11T08:58:46.432Z,10.09
2018-11-11T08:59:46.429Z,10.10
2018-11-11T09:00:46.456Z,10.01
2018-11-11T09:01:46.429Z,10.06
2018-11-11T09:02:46.424Z,10.03
2018-11-11T09:03:46.419Z,10.07
2018-11-11T09:04:46.476Z,10.00
2018-11-11T09:05:46.447Z,10.04
2018-11-11T09:06:46.416Z,10.04
2018-11-11T09:07:46.414Z,10.06
2018-11-11T09:08:47.193Z,9.99
2018-11-11T09:09:46.408Z,9.88
2018-11-11T09:10:46.434Z,9.94
2018-11-11T09:11:46.404Z,9.86
2018-11-11T09:12:46.398Z,9.82
2018-11-11T09:13:46.400Z,9.75
2018-11-11T09:14:46.399Z,9.68
2018-11-11T09:15:46.421Z,9.75
2018-11-11T09:16:46.389Z,9.78
2018-11-11T09:17:46.389Z,9.64
2018-11-11T09:18:46.385Z,9.64
2018-11-11T09:19:46.381Z,9.64
2018-11-11T09:20:46.407Z,9.63
2018-11-11T09:21:46.377Z,9.76
2018-11-11T09:22:46.376Z,9.81
2018-11-11T09:23:46.537Z,9.85
2018-11-11T09:24:46.370Z,9.81
2018-11-11T09:25:46.400Z,9.88
2018-11-11T09:26:46.365Z,9.99
2018-11-11T09:27:46.367Z,10.00
2018-11-11T09:28:46.358Z,10.06
2018-11-11T09:29:46.532Z,10.21
2018-11-11T09:30:46.382Z,10.28
2018-11-11T09:31:46.352Z,10.21
2018-11-11T09:32:46.348Z,10.28
2018-11-11T09:33:46.346Z,10.40
2018-11-11T09:34:46.342Z,10.36
2018-11-11T09:35:46.371Z,10.51
2018-11-11T09:36:46.337Z,10.58
2018-11-11T09:37:46.333Z,10.51
2018-11-11T09:38:46.346Z,10.60
2018-11-11T09:39:46.330Z,10.60
2018-11-11T09:40:46.355Z,10.63
2018-11-11T09:41:46.326Z,10.60
2018-11-11T09:42:46.325Z,10.73
2018-11-11T09:43:46.320Z,10.68
2018-11-11T09:44:46.317Z,10.74
2018-11-11T09:45:46.352Z,10.78
2018-11-11T09:46:46.311Z,10.74
2018-11-11T09:47:46.332Z,10.84
2018-11-11T09:48:46.307Z,10.71
2018-11-11T09:49:46.302Z,10.84
2018-11-11T09:50:46.332Z,10.88
2018-11-11T09:51:46.302Z,11.03
2018-11-11T09:52:46.412Z,11.09
2018-11-11T09:53:46.301Z,11.13
2018-11-11T09:54:46.290Z,11.28
2018-11-11T09:55:46.318Z,11.38
2018-11-11T09:56:46.291Z,11.46
2018-11-11T09:57:46.290Z,11.52
2018-11-11T09:58:46.371Z,11.50
2018-11-11T09:59:46.316Z,11.46
2018-11-11T10:00:46.311Z,11.54
2018-11-11T10:01:46.290Z,11.54
2018-11-11T10:02:46.283Z,11.34
2018-11-11T10:03:46.269Z,11.38
2018-11-11T10:04:46.332Z,11.27
2018-11-11T10:05:46.303Z,11.27
2018-11-11T10:06:46.448Z,11.19
2018-11-11T10:07:46.279Z,11.20
2018-11-11T10:08:46.339Z,11.27
2018-11-11T10:09:46.270Z,11.21
2018-11-11T10:10:46.296Z,11.20
2018-11-11T10:11:46.262Z,11.09
2018-11-11T10:12:46.323Z,11.14
2018-11-11T10:13:46.259Z,11.21
2018-11-11T10:14:46.258Z,11.29
2018-11-11T10:15:46.282Z,11.27
2018-11-11T10:16:46.247Z,11.35
2018-11-11T10:17:46.251Z,11.39
2018-11-11T10:18:46.246Z,11.39
2018-11-11T10:19:46.250Z,11.38
2018-11-11T10:20:46.326Z,11.47
2018-11-11T10:21:46.249Z,11.32
2018-11-11T10:22:46.236Z,11.39
2018-11-11T10:23:46.240Z,11.32
2018-11-11T10:24:46.235Z,11.24
2018-11-11T10:25:46.264Z,11.31
2018-11-11T10:26:46.240Z,11.28
2018-11-11T10:27:46.232Z,11.24
2018-11-11T10:28:46.234Z,11.02
2018-11-11T10:29:46.230Z,10.99
2018-11-11T10:30:46.257Z,10.92
2018-11-11T10:31:46.220Z,10.96
2018-11-11T10:32:46.220Z,10.89
2018-11-11T10:33:46.220Z,10.86
2018-11-11T10:34:46.216Z,10.96
2018-11-11T10:35:46.253Z,11.03
2018-11-11T10:36:46.244Z,11.24
2018-11-11T10:37:46.215Z,11.20
2018-11-11T10:38:46.217Z,11.31
2018-11-11T10:39:46.217Z,11.34
2018-11-11T10:40:46.202Z,11.54
2018-11-11T10:41:46.237Z,11.52
2018-11-11T10:42:46.208Z,11.54
2018-11-11T10:43:46.199Z,11.59
2018-11-11T10:44:46.203Z,11.52
2018-11-11T10:45:46.231Z,11.50
2018-11-11T10:46:46.221Z,11.57
2018-11-11T10:47:46.197Z,11.70
2018-11-11T10:48:46.195Z,11.52
2018-11-11T10:49:46.191Z,11.49
2018-11-11T10:50:46.189Z,11.46
2018-11-11T10:51:46.216Z,11.54
2018-11-11T10:52:46.201Z,11.62
2018-11-11T10:53:46.182Z,11.72
2018-11-11T10:54:46.186Z,11.70
2018-11-11T10:55:46.187Z,11.82
2018-11-11T10:56:46.212Z,11.71
2018-11-11T10:57:46.174Z,11.68
2018-11-11T10:58:46.181Z,11.62
2018-11-11T10:59:46.171Z,11.68
2018-11-11T11:00:46.169Z,11.80
2018-11-11T11:01:46.209Z,12.39
2018-11-11T11:02:47.142Z,12.78
2018-11-11T11:03:46.165Z,13.17
2018-11-11T11:04:46.170Z,13.21
2018-11-11T11:05:46.249Z,13.07
2018-11-11T11:06:46.202Z,12.74
2018-11-11T11:07:46.177Z,12.41
2018-11-11T11:08:46.174Z,12.13
2018-11-11T11:09:46.180Z,12.06
2018-11-11T11:10:46.173Z,12.37
2018-11-11T11:11:46.203Z,12.92
2018-11-11T11:12:46.177Z,12.63
2018-11-11T11:13:46.261Z,12.81
2018-11-11T11:14:47.139Z,12.92
2018-11-11T11:15:46.209Z,13.33
2018-11-11T11:16:46.190Z,13.63
2018-11-11T11:17:46.185Z,13.62
2018-11-11T11:18:46.186Z,13.37
2018-11-11T11:19:46.189Z,13.37
2018-11-11T11:20:46.228Z,13.37
2018-11-11T11:21:46.230Z,13.63
2018-11-11T11:22:46.270Z,13.33
2018-11-11T11:23:46.216Z,13.37
2018-11-11T11:24:46.221Z,13.55
2018-11-11T11:25:46.294Z,13.51
2018-11-11T11:26:46.264Z,13.41
2018-11-11T11:27:46.237Z,13.56
2018-11-11T11:28:46.295Z,13.76
2018-11-11T11:29:46.255Z,14.37
2018-11-11T11:30:46.263Z,13.89
2018-11-11T11:31:46.449Z,13.65
2018-11-11T11:32:46.274Z,13.98
2018-11-11T11:33:46.283Z,13.76
2018-11-11T11:34:46.289Z,14.21
2018-11-11T11:35:46.393Z,14.16
2018-11-11T11:36:46.333Z,14.01
2018-11-11T11:37:46.316Z,13.76
2018-11-11T11:38:46.315Z,13.70
2018-11-11T11:39:46.324Z,13.83
2018-11-11T11:40:46.335Z,13.95
2018-11-11T11:41:46.374Z,13.87
2018-11-11T11:42:46.391Z,14.16
2018-11-11T11:43:46.370Z,14.13
2018-11-11T11:44:46.374Z,14.54
2018-11-11T11:45:46.381Z,13.84
2018-11-11T11:46:46.405Z,13.99
2018-11-11T11:47:46.425Z,14.29
2018-11-11T11:48:46.405Z,14.13
2018-11-11T11:49:46.448Z,14.37
2018-11-11T11:50:46.431Z,15.05
2018-11-11T11:51:46.484Z,15.66
2018-11-11T11:52:46.496Z,15.51
2018-11-11T11:53:46.452Z,15.60
2018-11-11T11:54:46.466Z,15.96
2018-11-11T11:55:46.471Z,15.23
2018-11-11T11:56:46.480Z,15.59
2018-11-11T11:57:46.514Z,15.23
2018-11-11T11:58:46.496Z,15.30
2018-11-11T11:59:46.508Z,14.94
2018-11-11T12:00:46.520Z,15.05
2018-11-11T12:01:46.529Z,14.75
2018-11-11T12:02:46.569Z,14.98
2018-11-11T12:03:46.549Z,14.75
2018-11-11T12:04:46.560Z,15.31
2018-11-11T12:05:46.565Z,14.83
2018-11-11T12:06:46.587Z,15.12
2018-11-11T12:07:46.616Z,15.46
2018-11-11T12:08:46.691Z,15.64
2018-11-11T12:09:46.610Z,16.03
2018-11-11T12:10:46.622Z,16.30
2018-11-11T12:11:46.657Z,16.09
2018-11-11T12:12:46.643Z,15.45
2018-11-11T12:13:46.648Z,15.92
2018-11-11T12:14:46.662Z,15.88
2018-11-11T12:15:46.669Z,15.82
2018-11-11T12:16:46.860Z,15.76
2018-11-11T12:17:46.691Z,15.31
2018-11-11T12:18:46.697Z,15.30
2018-11-11T12:19:46.705Z,15.08
2018-11-11T12:20:46.717Z,15.61
2018-11-11T12:21:46.757Z,15.86
2018-11-11T12:22:46.781Z,16.01
2018-11-11T12:23:46.745Z,16.01
2018-11-11T12:24:46.764Z,16.25
2018-11-11T12:25:46.769Z,16.27
2018-11-11T12:26:46.780Z,16.15
2018-11-11T12:27:46.811Z,16.31
2018-11-11T12:28:46.807Z,16.58
2018-11-11T12:29:46.805Z,16.68
2018-11-11T12:30:46.880Z,16.60
2018-11-11T12:31:46.826Z,16.49
2018-11-11T12:32:46.866Z,16.53
2018-11-11T12:33:46.849Z,16.35
2018-11-11T12:34:46.854Z,16.31
2018-11-11T12:35:46.862Z,16.49
2018-11-11T12:36:46.871Z,16.67
2018-11-11T12:37:46.911Z,16.27
2018-11-11T12:38:46.895Z,16.22
2018-11-11T12:39:47.009Z,16.14
2018-11-11T12:40:46.908Z,16.30
2018-11-11T12:41:46.920Z,16.01
2018-11-11T12:42:46.955Z,15.96
2018-11-11T12:43:46.936Z,15.94
2018-11-11T12:44:47.066Z,15.92
2018-11-11T12:45:46.956Z,16.06
2018-11-11T12:46:46.966Z,16.23
2018-11-11T12:47:46.991Z,16.18
2018-11-11T12:48:47.033Z,16.27
2018-11-11T12:49:46.989Z,16.23
2018-11-11T12:50:46.995Z,16.38
2018-11-11T12:51:46.999Z,16.50
2018-11-11T12:52:47.046Z,16.55
2018-11-11T12:53:47.020Z,16.71
2018-11-11T12:54:47.066Z,16.50
2018-11-11T12:55:47.042Z,16.15
2018-11-11T12:56:47.048Z,15.81
2018-11-11T12:57:47.079Z,15.49
2018-11-11T12:58:47.089Z,15.33
2018-11-11T12:59:47.074Z,15.26
2018-11-11T13:00:47.106Z,15.30
2018-11-11T13:01:47.082Z,15.24
2018-11-11T13:02:47.088Z,15.42
2018-11-11T13:03:47.122Z,15.86
2018-11-11T13:04:47.182Z,16.00
2018-11-11T13:05:47.104Z,16.06
2018-11-11T13:06:47.110Z,16.15
2018-11-11T13:07:47.145Z,15.70
2018-11-11T13:08:47.125Z,15.33